N510MV KTRM-KLGB
Flight info
| Callsign | N510MV |
|---|---|
| Flight time | 0h 34m |
| Altitude | 12000 |
| Route | MECCA1 PSP V388 DEWAY FRETS KAYOH8 |
| Aircraft | C510/L-SDFGRWY/LB1 |
Departure
| Time | 2026-04-27 02:49 |
|---|---|
| Airport | Jacqueline Cochran Regional Airport (KTRM) |
Arrival
| Time | 2026-04-27 03:23 |
|---|---|
| Airport | Long Beach International Airport (KLGB) |
| Time | Latitude | Longitude | Altitude | Speed | Heading |
|---|---|---|---|---|---|
| 2026-04-27 02:22 | 33.63472 | -116.16216 | -87 ft | 0 kts | 90° |
| 2026-04-27 02:42 | 33.63472 | -116.16209 | -89 ft | 4 kts | 107° |
| 2026-04-27 02:42 | 33.63432 | -116.16190 | -89 ft | 9 kts | 156° |
| 2026-04-27 02:42 | 33.63415 | -116.16090 | -90 ft | 16 kts | 90° |
| 2026-04-27 02:43 | 33.63414 | -116.15947 | -90 ft | 15 kts | 90° |
| 2026-04-27 02:43 | 33.63412 | -116.15832 | -91 ft | 12 kts | 91° |
| 2026-04-27 02:43 | 33.63371 | -116.15773 | -91 ft | 10 kts | 176° |
| 2026-04-27 02:43 | 33.63290 | -116.15773 | -92 ft | 13 kts | 181° |
| 2026-04-27 02:44 | 33.63183 | -116.15773 | -93 ft | 17 kts | 179° |
| 2026-04-27 02:44 | 33.63055 | -116.15775 | -93 ft | 18 kts | 180° |
| 2026-04-27 02:44 | 33.62937 | -116.15773 | -94 ft | 15 kts | 180° |
| 2026-04-27 02:44 | 33.62833 | -116.15772 | -94 ft | 13 kts | 180° |
| 2026-04-27 02:45 | 33.62735 | -116.15774 | -95 ft | 14 kts | 181° |
| 2026-04-27 02:45 | 33.62626 | -116.15774 | -96 ft | 16 kts | 178° |
| 2026-04-27 02:45 | 33.62507 | -116.15773 | -97 ft | 18 kts | 180° |
| 2026-04-27 02:45 | 33.62361 | -116.15772 | -97 ft | 22 kts | 180° |
| 2026-04-27 02:46 | 33.62206 | -116.15771 | -98 ft | 22 kts | 181° |
| 2026-04-27 02:46 | 33.62045 | -116.15773 | -99 ft | 22 kts | 180° |
| 2026-04-27 02:46 | 33.61884 | -116.15774 | -100 ft | 23 kts | 180° |
| 2026-04-27 02:46 | 33.61731 | -116.15773 | -101 ft | 20 kts | 181° |
| 2026-04-27 02:47 | 33.61607 | -116.15773 | -102 ft | 12 kts | 164° |
| 2026-04-27 02:47 | 33.61588 | -116.15743 | -102 ft | 1 kts | 94° |
| 2026-04-27 02:48 | 33.61588 | -116.15739 | -102 ft | 1 kts | 93° |
| 2026-04-27 02:48 | 33.61587 | -116.15692 | -102 ft | 10 kts | 89° |
| 2026-04-27 02:48 | 33.61649 | -116.15644 | -102 ft | 25 kts | 0° |
| 2026-04-27 02:48 | 33.62089 | -116.15644 | -100 ft | 93 kts | 1° |
| 2026-04-27 02:49 | 33.62841 | -116.15625 | 24 ft | 120 kts | 357° |
| 2026-04-27 02:49 | 33.63750 | -116.15644 | 485 ft | 144 kts | 356° |
| 2026-04-27 02:49 | 33.64775 | -116.15343 | 1099 ft | 170 kts | 31° |
| 2026-04-27 02:49 | 33.65448 | -116.14155 | 1881 ft | 186 kts | 81° |
| 2026-04-27 02:50 | 33.65096 | -116.12760 | 2810 ft | 187 kts | 135° |
| 2026-04-27 02:50 | 33.63952 | -116.12077 | 3609 ft | 190 kts | 180° |
| 2026-04-27 02:50 | 33.62664 | -116.12382 | 4482 ft | 191 kts | 204° |
| 2026-04-27 02:50 | 33.61442 | -116.12944 | 5394 ft | 193 kts | 206° |
| 2026-04-27 02:51 | 33.60200 | -116.13477 | 6300 ft | 195 kts | 199° |
| 2026-04-27 02:51 | 33.58860 | -116.13314 | 7153 ft | 206 kts | 157° |
| 2026-04-27 02:51 | 33.57632 | -116.12383 | 7972 ft | 212 kts | 149° |
| 2026-04-27 02:51 | 33.56414 | -116.11443 | 8813 ft | 211 kts | 152° |
| 2026-04-27 02:52 | 33.55196 | -116.10564 | 9556 ft | 203 kts | 151° |
| 2026-04-27 02:52 | 33.54014 | -116.09680 | 10157 ft | 202 kts | 148° |
| 2026-04-27 02:52 | 33.53007 | -116.08418 | 10410 ft | 224 kts | 116° |
| 2026-04-27 02:52 | 33.53307 | -116.06658 | 10165 ft | 237 kts | 20° |
| 2026-04-27 02:53 | 33.54757 | -116.06561 | 11142 ft | 199 kts | 340° |
| 2026-04-27 02:53 | 33.55994 | -116.07024 | 11881 ft | 187 kts | 336° |
| 2026-04-27 02:53 | 33.57284 | -116.07497 | 11989 ft | 202 kts | 337° |
| 2026-04-27 02:53 | 33.58689 | -116.08020 | 12020 ft | 220 kts | 337° |
| 2026-04-27 02:54 | 33.60096 | -116.08834 | 12025 ft | 229 kts | 320° |
| 2026-04-27 02:54 | 33.61322 | -116.10111 | 12030 ft | 240 kts | 314° |
| 2026-04-27 02:54 | 33.62538 | -116.11552 | 12026 ft | 250 kts | 311° |
| 2026-04-27 02:54 | 33.63762 | -116.13090 | 12004 ft | 258 kts | 311° |
| 2026-04-27 02:55 | 33.64997 | -116.14663 | 12030 ft | 263 kts | 311° |
| 2026-04-27 02:55 | 33.66267 | -116.16286 | 12023 ft | 268 kts | 311° |
| 2026-04-27 02:55 | 33.67450 | -116.18027 | 11998 ft | 270 kts | 297° |
| 2026-04-27 02:55 | 33.67928 | -116.20176 | 12015 ft | 270 kts | 279° |
| 2026-04-27 02:56 | 33.68244 | -116.22407 | 12005 ft | 272 kts | 278° |
| 2026-04-27 02:56 | 33.68417 | -116.24682 | 12014 ft | 271 kts | 276° |
| 2026-04-27 02:56 | 33.68615 | -116.26911 | 12022 ft | 269 kts | 276° |
| 2026-04-27 02:56 | 33.68776 | -116.29146 | 12024 ft | 268 kts | 276° |
| 2026-04-27 02:57 | 33.68953 | -116.31357 | 12023 ft | 267 kts | 275° |
| 2026-04-27 02:57 | 33.69122 | -116.33599 | 12009 ft | 267 kts | 276° |
| 2026-04-27 02:57 | 33.69294 | -116.35795 | 12030 ft | 267 kts | 276° |
| 2026-04-27 02:57 | 33.69465 | -116.38022 | 12031 ft | 268 kts | 276° |
| 2026-04-27 02:58 | 33.69635 | -116.40239 | 12045 ft | 268 kts | 275° |
| 2026-04-27 02:58 | 33.69804 | -116.42479 | 12050 ft | 268 kts | 276° |
| 2026-04-27 02:58 | 33.69976 | -116.44714 | 12046 ft | 269 kts | 276° |
| 2026-04-27 02:58 | 33.70144 | -116.46941 | 12055 ft | 269 kts | 276° |
| 2026-04-27 02:59 | 33.70316 | -116.49174 | 12043 ft | 270 kts | 276° |
| 2026-04-27 02:59 | 33.70485 | -116.51429 | 12054 ft | 270 kts | 276° |
| 2026-04-27 02:59 | 33.70656 | -116.53668 | 12056 ft | 271 kts | 276° |
| 2026-04-27 02:59 | 33.70828 | -116.55933 | 12043 ft | 270 kts | 276° |
| 2026-04-27 03:00 | 33.70994 | -116.58172 | 12110 ft | 271 kts | 275° |
| 2026-04-27 03:00 | 33.71164 | -116.60415 | 12082 ft | 272 kts | 275° |
| 2026-04-27 03:00 | 33.71333 | -116.62701 | 12091 ft | 273 kts | 276° |
| 2026-04-27 03:00 | 33.71501 | -116.64955 | 12070 ft | 273 kts | 276° |
| 2026-04-27 03:01 | 33.71672 | -116.67238 | 12079 ft | 269 kts | 275° |
| 2026-04-27 03:01 | 33.71837 | -116.69450 | 12090 ft | 268 kts | 275° |
| 2026-04-27 03:01 | 33.71997 | -116.71668 | 12072 ft | 267 kts | 275° |
| 2026-04-27 03:01 | 33.72165 | -116.73875 | 12085 ft | 266 kts | 275° |
| 2026-04-27 03:02 | 33.72329 | -116.76118 | 11966 ft | 268 kts | 275° |
| 2026-04-27 03:02 | 33.72491 | -116.78326 | 11956 ft | 267 kts | 275° |
| 2026-04-27 03:02 | 33.72657 | -116.80567 | 11953 ft | 264 kts | 275° |
| 2026-04-27 03:02 | 33.72815 | -116.82734 | 11961 ft | 263 kts | 275° |
| 2026-04-27 03:03 | 33.72978 | -116.84940 | 11985 ft | 262 kts | 275° |
| 2026-04-27 03:03 | 33.73293 | -116.89286 | 11957 ft | 261 kts | 275° |
| 2026-04-27 03:03 | 33.73448 | -116.91453 | 11965 ft | 259 kts | 275° |
| 2026-04-27 03:04 | 33.73604 | -116.93597 | 11988 ft | 258 kts | 275° |
| 2026-04-27 03:04 | 33.73758 | -116.95740 | 11999 ft | 258 kts | 275° |
| 2026-04-27 03:04 | 33.73912 | -116.97875 | 11994 ft | 258 kts | 274° |
| 2026-04-27 03:04 | 33.74067 | -117.00036 | 11992 ft | 258 kts | 275° |
| 2026-04-27 03:05 | 33.74222 | -117.02188 | 11991 ft | 259 kts | 274° |
| 2026-04-27 03:05 | 33.74373 | -117.04343 | 11993 ft | 259 kts | 275° |
| 2026-04-27 03:05 | 33.74529 | -117.06490 | 11989 ft | 259 kts | 274° |
| 2026-04-27 03:05 | 33.74680 | -117.08643 | 11989 ft | 258 kts | 275° |
| 2026-04-27 03:06 | 33.74833 | -117.10789 | 11992 ft | 258 kts | 274° |
| 2026-04-27 03:06 | 33.74987 | -117.12948 | 11989 ft | 258 kts | 274° |
| 2026-04-27 03:06 | 33.75137 | -117.15089 | 11987 ft | 258 kts | 274° |
| 2026-04-27 03:06 | 33.75289 | -117.17249 | 11987 ft | 258 kts | 275° |
| 2026-04-27 03:07 | 33.75437 | -117.19388 | 11987 ft | 258 kts | 275° |
| 2026-04-27 03:07 | 33.75589 | -117.21545 | 11982 ft | 259 kts | 275° |
| 2026-04-27 03:07 | 33.75740 | -117.23702 | 11983 ft | 259 kts | 275° |
| 2026-04-27 03:07 | 33.75889 | -117.25855 | 11979 ft | 259 kts | 274° |
| 2026-04-27 03:08 | 33.76039 | -117.28002 | 11974 ft | 260 kts | 274° |
| 2026-04-27 03:08 | 33.76188 | -117.30157 | 11750 ft | 255 kts | 274° |
| 2026-04-27 03:08 | 33.76333 | -117.32227 | 11489 ft | 248 kts | 275° |
| 2026-04-27 03:08 | 33.76473 | -117.34278 | 11233 ft | 243 kts | 274° |
| 2026-04-27 03:09 | 33.76611 | -117.36278 | 10980 ft | 239 kts | 274° |
| 2026-04-27 03:09 | 33.76747 | -117.38240 | 10731 ft | 235 kts | 274° |
| 2026-04-27 03:09 | 33.76881 | -117.40207 | 10475 ft | 233 kts | 274° |
| 2026-04-27 03:09 | 33.77013 | -117.42121 | 10225 ft | 230 kts | 274° |
| 2026-04-27 03:10 | 33.77141 | -117.44029 | 9974 ft | 229 kts | 274° |
| 2026-04-27 03:10 | 33.77269 | -117.45916 | 9724 ft | 228 kts | 274° |
| 2026-04-27 03:10 | 33.77398 | -117.47821 | 9471 ft | 227 kts | 274° |
| 2026-04-27 03:10 | 33.77523 | -117.49694 | 9220 ft | 226 kts | 274° |
| 2026-04-27 03:11 | 33.77650 | -117.51569 | 8968 ft | 226 kts | 274° |
| 2026-04-27 03:11 | 33.77777 | -117.53445 | 8716 ft | 227 kts | 275° |
| 2026-04-27 03:11 | 33.77906 | -117.55352 | 8464 ft | 227 kts | 274° |
| 2026-04-27 03:11 | 33.78033 | -117.57253 | 8219 ft | 232 kts | 274° |
| 2026-04-27 03:12 | 33.78163 | -117.59199 | 8024 ft | 237 kts | 274° |
| 2026-04-27 03:12 | 33.78295 | -117.61190 | 7994 ft | 240 kts | 274° |
| 2026-04-27 03:12 | 33.78430 | -117.63193 | 7988 ft | 241 kts | 274° |
| 2026-04-27 03:12 | 33.78510 | -117.65209 | 7980 ft | 242 kts | 264° |
| 2026-04-27 03:13 | 33.77792 | -117.67010 | 7894 ft | 249 kts | 228° |
| 2026-04-27 03:13 | 33.76437 | -117.68324 | 7666 ft | 249 kts | 220° |
| 2026-04-27 03:13 | 33.75099 | -117.69627 | 7422 ft | 247 kts | 221° |
| 2026-04-27 03:13 | 33.73776 | -117.70875 | 7170 ft | 242 kts | 220° |
| 2026-04-27 03:14 | 33.72450 | -117.72140 | 6908 ft | 237 kts | 220° |
| 2026-04-27 03:14 | 33.71222 | -117.73418 | 6642 ft | 232 kts | 233° |
| 2026-04-27 03:14 | 33.70558 | -117.75120 | 6401 ft | 225 kts | 251° |
| 2026-04-27 03:14 | 33.70014 | -117.76871 | 6155 ft | 224 kts | 250° |
| 2026-04-27 03:15 | 33.69473 | -117.78625 | 6001 ft | 220 kts | 250° |
| 2026-04-27 03:15 | 33.68955 | -117.80305 | 5866 ft | 216 kts | 250° |
| 2026-04-27 03:15 | 33.68435 | -117.81986 | 5614 ft | 213 kts | 250° |
| 2026-04-27 03:15 | 33.67920 | -117.83663 | 5362 ft | 212 kts | 251° |
| 2026-04-27 03:16 | 33.67418 | -117.85286 | 5117 ft | 210 kts | 250° |
| 2026-04-27 03:16 | 33.66908 | -117.86932 | 4869 ft | 209 kts | 251° |
| 2026-04-27 03:16 | 33.66401 | -117.88554 | 4620 ft | 207 kts | 251° |
| 2026-04-27 03:16 | 33.65891 | -117.90181 | 4369 ft | 207 kts | 250° |
| 2026-04-27 03:17 | 33.65452 | -117.91811 | 4108 ft | 205 kts | 264° |
| 2026-04-27 03:17 | 33.65815 | -117.93404 | 3875 ft | 204 kts | 300° |
| 2026-04-27 03:17 | 33.66570 | -117.94846 | 3635 ft | 203 kts | 300° |
| 2026-04-27 03:17 | 33.67320 | -117.96288 | 3387 ft | 203 kts | 300° |
| 2026-04-27 03:18 | 33.68076 | -117.97703 | 3133 ft | 205 kts | 302° |
| 2026-04-27 03:18 | 33.68922 | -117.99084 | 3097 ft | 201 kts | 306° |
| 2026-04-27 03:18 | 33.69761 | -118.00402 | 3069 ft | 196 kts | 304° |
| 2026-04-27 03:18 | 33.70616 | -118.01666 | 2923 ft | 194 kts | 309° |
| 2026-04-27 03:19 | 33.71545 | -118.02831 | 2661 ft | 191 kts | 312° |
| 2026-04-27 03:19 | 33.72493 | -118.03894 | 2379 ft | 188 kts | 315° |
| 2026-04-27 03:19 | 33.73405 | -118.04921 | 2193 ft | 159 kts | 313° |
| 2026-04-27 03:19 | 33.74070 | -118.05715 | 1866 ft | 119 kts | 308° |
| 2026-04-27 03:20 | 33.74603 | -118.06383 | 1522 ft | 107 kts | 309° |
| 2026-04-27 03:20 | 33.75111 | -118.07000 | 1250 ft | 106 kts | 309° |
| 2026-04-27 03:20 | 33.75618 | -118.07632 | 1151 ft | 102 kts | 308° |
| 2026-04-27 03:20 | 33.76108 | -118.08248 | 1034 ft | 102 kts | 310° |
| 2026-04-27 03:21 | 33.76604 | -118.08858 | 969 ft | 104 kts | 308° |
| 2026-04-27 03:21 | 33.77095 | -118.09495 | 986 ft | 106 kts | 308° |
| 2026-04-27 03:21 | 33.77616 | -118.10167 | 962 ft | 113 kts | 311° |
| 2026-04-27 03:21 | 33.78190 | -118.10815 | 877 ft | 115 kts | 311° |
| 2026-04-27 03:22 | 33.78725 | -118.11471 | 721 ft | 110 kts | 311° |
| 2026-04-27 03:22 | 33.79283 | -118.12111 | 540 ft | 109 kts | 310° |
| 2026-04-27 03:22 | 33.79805 | -118.12735 | 368 ft | 104 kts | 309° |
| 2026-04-27 03:22 | 33.80286 | -118.13335 | 223 ft | 100 kts | 309° |
| 2026-04-27 03:23 | 33.80769 | -118.13920 | 108 ft | 97 kts | 308° |
| 2026-04-27 03:23 | 33.81242 | -118.14487 | 42 ft | 92 kts | 314° |
| 2026-04-27 03:23 | 33.81636 | -118.14973 | 41 ft | 65 kts | 315° |
| 2026-04-27 03:23 | 33.81851 | -118.15234 | 45 ft | 16 kts | 281° |
| 2026-04-27 03:24 | 33.81850 | -118.15345 | 46 ft | 10 kts | 252° |
| 2026-04-27 03:24 | 33.81807 | -118.15357 | 46 ft | 4 kts | 145° |
| 2026-04-27 03:24 | 33.81799 | -118.15348 | 46 ft | 0 kts | 133° |
| 2026-04-27 03:25 | 33.81797 | -118.15346 | 46 ft | 2 kts | 133° |
| 2026-04-27 03:25 | 33.81741 | -118.15277 | 45 ft | 17 kts | 136° |
| 2026-04-27 03:26 | 33.81634 | -118.15151 | 43 ft | 22 kts | 134° |
| 2026-04-27 03:26 | 33.81529 | -118.15022 | 41 ft | 17 kts | 132° |
| 2026-04-27 03:26 | 33.81462 | -118.14940 | 40 ft | 6 kts | 134° |
| 2026-04-27 03:26 | 33.81452 | -118.14928 | 40 ft | 0 kts | 135° |
| 2026-04-27 03:27 | 33.81434 | -118.14907 | 39 ft | 8 kts | 136° |
| 2026-04-27 03:27 | 33.81358 | -118.14861 | 39 ft | 17 kts | 181° |
| 2026-04-27 03:27 | 33.81309 | -118.14970 | 40 ft | 20 kts | 271° |
| 2026-04-27 03:28 | 33.81305 | -118.15153 | 42 ft | 24 kts | 269° |
| 2026-04-27 03:28 | 33.81307 | -118.15367 | 45 ft | 23 kts | 270° |
| 2026-04-27 03:28 | 33.81307 | -118.15535 | 47 ft | 16 kts | 270° |
| 2026-04-27 03:28 | 33.81307 | -118.15652 | 48 ft | 11 kts | 269° |
| 2026-04-27 03:29 | 33.81306 | -118.15727 | 49 ft | 7 kts | 269° |
| 2026-04-27 03:29 | 33.81302 | -118.15781 | 50 ft | 6 kts | 248° |
| 2026-04-27 03:29 | 33.81273 | -118.15816 | 50 ft | 3 kts | 240° |
| 2026-04-27 03:29 | 33.81271 | -118.15826 | 51 ft | 0 kts | 268° |